sensor_id;sensor_type;location;lat;lon;timestamp;pressure;altitude;pressure_sealevel;temperature;humidity
36600;BME280;35385;55.668;37.508;2023-03-22T00:01:10;98659.06;;;4.84;100.00
36600;BME280;35385;55.668;37.508;2023-03-22T00:02:11;98585.25;;;4.46;100.00
36600;BME280;35385;55.668;37.508;2023-03-22T00:03:11;98715.63;;;5.18;100.00
36600;BME280;35385;55.668;37.508;2023-03-22T00:04:12;98717.44;;;5.29;100.00
36600;BME280;35385;55.668;37.508;2023-03-22T00:05:13;98707.69;;;5.29;100.00
36600;BME280;35385;55.668;37.508;2023-03-22T00:06:14;98660.59;;;5.11;100.00
36600;BME280;35385;55.668;37.508;2023-03-22T00:07:15;98715.41;;;5.32;100.00
36600;BME280;35385;55.668;37.508;2023-03-22T00:08:25;98702.41;;;5.29;100.00
36600;BME280;35385;55.668;37.508;2023-03-22T00:09:25;98665.38;;;5.06;100.00
36600;BME280;35385;55.668;37.508;2023-03-22T00:10:35;98713.00;;;5.29;100.00
36600;BME280;35385;55.668;37.508;2023-03-22T00:11:57;98716.59;;;5.28;100.00
36600;BME280;35385;55.668;37.508;2023-03-22T00:12:58;98727.41;;;5.14;100.00
36600;BME280;35385;55.668;37.508;2023-03-22T00:13:59;98710.56;;;4.91;100.00
36600;BME280;35385;55.668;37.508;2023-03-22T00:15:00;98694.94;;;4.88;100.00
36600;BME280;35385;55.668;37.508;2023-03-22T00:16:00;98708.44;;;4.96;100.00
36600;BME280;35385;55.668;37.508;2023-03-22T00:17:02;98670.28;;;4.88;100.00
36600;BME280;35385;55.668;37.508;2023-03-22T00:18:02;98711.72;;;5.11;100.00
36600;BME280;35385;55.668;37.508;2023-03-22T00:19:05;98719.22;;;5.17;100.00
36600;BME280;35385;55.668;37.508;2023-03-22T00:20:06;98711.66;;;5.24;100.00
36600;BME280;35385;55.668;37.508;2023-03-22T00:21:10;98699.03;;;5.27;100.00
36600;BME280;35385;55.668;37.508;2023-03-22T00:22:12;98655.78;;;5.05;100.00
36600;BME280;35385;55.668;37.508;2023-03-22T00:23:14;98665.75;;;5.01;100.00
36600;BME280;35385;55.668;37.508;2023-03-22T00:24:14;98711.28;;;5.17;100.00
36600;BME280;35385;55.668;37.508;2023-03-22T00:25:15;98709.72;;;5.15;100.00
36600;BME280;35385;55.668;37.508;2023-03-22T00:26:16;98700.78;;;5.05;100.00
36600;BME280;35385;55.668;37.508;2023-03-22T00:27:19;98648.81;;;4.80;100.00
36600;BME280;35385;55.668;37.508;2023-03-22T00:28:22;98656.22;;;4.87;100.00
36600;BME280;35385;55.668;37.508;2023-03-22T00:29:26;98702.31;;;5.07;100.00
36600;BME280;35385;55.668;37.508;2023-03-22T00:30:33;98706.66;;;5.08;100.00
36600;BME280;35385;55.668;37.508;2023-03-22T00:31:36;98719.81;;;5.21;100.00
36600;BME280;35385;55.668;37.508;2023-03-22T00:32:37;98675.38;;;5.02;100.00
36600;BME280;35385;55.668;37.508;2023-03-22T00:33:41;98699.34;;;5.12;100.00
36600;BME280;35385;55.668;37.508;2023-03-22T00:34:41;98730.34;;;5.33;100.00
36600;BME280;35385;55.668;37.508;2023-03-22T00:35:52;98723.81;;;5.26;100.00
36600;BME280;35385;55.668;37.508;2023-03-22T00:37:02;98706.53;;;4.98;100.00
36600;BME280;35385;55.668;37.508;2023-03-22T00:38:13;98714.72;;;5.07;100.00
36600;BME280;35385;55.668;37.508;2023-03-22T00:39:19;98676.00;;;4.82;100.00
36600;BME280;35385;55.668;37.508;2023-03-22T00:40:20;98728.34;;;5.13;100.00
36600;BME280;35385;55.668;37.508;2023-03-22T00:41:22;98719.66;;;5.11;100.00
36600;BME280;35385;55.668;37.508;2023-03-22T00:42:22;98739.00;;;5.01;100.00
36600;BME280;35385;55.668;37.508;2023-03-22T00:43:23;98742.63;;;5.00;100.00
36600;BME280;35385;55.668;37.508;2023-03-22T00:44:24;98728.06;;;5.05;100.00
36600;BME280;35385;55.668;37.508;2023-03-22T00:45:24;98733.13;;;5.08;100.00
36600;BME280;35385;55.668;37.508;2023-03-22T00:46:32;98729.28;;;5.01;100.00
36600;BME280;35385;55.668;37.508;2023-03-22T00:47:38;98723.34;;;4.97;100.00
36600;BME280;35385;55.668;37.508;2023-03-22T00:48:41;98718.91;;;4.98;100.00
36600;BME280;35385;55.668;37.508;2023-03-22T00:49:42;98746.38;;;5.08;100.00
36600;BME280;35385;55.668;37.508;2023-03-22T00:50:43;98744.53;;;4.97;100.00
36600;BME280;35385;55.668;37.508;2023-03-22T00:51:43;98735.00;;;4.95;100.00
36600;BME280;35385;55.668;37.508;2023-03-22T00:53:06;98749.09;;;4.95;100.00
36600;BME280;35385;55.668;37.508;2023-03-22T00:54:07;98744.38;;;4.88;100.00
36600;BME280;35385;55.668;37.508;2023-03-22T00:55:08;98741.84;;;4.86;100.00
36600;BME280;35385;55.668;37.508;2023-03-22T00:56:11;98749.19;;;4.94;100.00
36600;BME280;35385;55.668;37.508;2023-03-22T00:57:15;98684.19;;;4.55;100.00
36600;BME280;35385;55.668;37.508;2023-03-22T00:58:18;98743.91;;;4.94;100.00
36600;BME280;35385;55.668;37.508;2023-03-22T00:59:18;98731.34;;;4.85;100.00
36600;BME280;35385;55.668;37.508;2023-03-22T01:00:19;98722.59;;;4.60;100.00
36600;BME280;35385;55.668;37.508;2023-03-22T01:01:20;98743.81;;;4.72;100.00
36600;BME280;35385;55.668;37.508;2023-03-22T01:02:20;98694.81;;;4.42;100.00
36600;BME280;35385;55.668;37.508;2023-03-22T01:03:29;98743.13;;;4.81;100.00
36600;BME280;35385;55.668;37.508;2023-03-22T01:04:30;98743.41;;;4.89;100.00
36600;BME280;35385;55.668;37.508;2023-03-22T01:05:31;98764.28;;;4.81;100.00
36600;BME280;35385;55.668;37.508;2023-03-22T01:06:33;98757.34;;;4.67;100.00
36600;BME280;35385;55.668;37.508;2023-03-22T01:07:34;98759.69;;;4.72;100.00
36600;BME280;35385;55.668;37.508;2023-03-22T01:08:37;98758.19;;;4.68;100.00
36600;BME280;35385;55.668;37.508;2023-03-22T01:09:38;98695.72;;;4.30;100.00
36600;BME280;35385;55.668;37.508;2023-03-22T01:10:39;98756.28;;;4.70;100.00
36600;BME280;35385;55.668;37.508;2023-03-22T01:11:43;98738.63;;;4.46;100.00
36600;BME280;35385;55.668;37.508;2023-03-22T01:12:44;98762.97;;;4.62;100.00
36600;BME280;35385;55.668;37.508;2023-03-22T01:13:45;98767.09;;;4.67;100.00
36600;BME280;35385;55.668;37.508;2023-03-22T01:14:47;98762.91;;;4.51;100.00
36600;BME280;35385;55.668;37.508;2023-03-22T01:15:50;98753.50;;;4.47;100.00
36600;BME280;35385;55.668;37.508;2023-03-22T01:16:51;98751.38;;;4.52;100.00
36600;BME280;35385;55.668;37.508;2023-03-22T01:17:56;98765.75;;;4.61;100.00
36600;BME280;35385;55.668;37.508;2023-03-22T01:18:57;98755.78;;;4.65;100.00
36600;BME280;35385;55.668;37.508;2023-03-22T01:19:57;98746.94;;;4.53;100.00
36600;BME280;35385;55.668;37.508;2023-03-22T01:20:58;98777.03;;;4.63;100.00
36600;BME280;35385;55.668;37.508;2023-03-22T01:21:59;98707.69;;;4.23;100.00
36600;BME280;35385;55.668;37.508;2023-03-22T01:23:00;98769.94;;;4.63;100.00
36600;BME280;35385;55.668;37.508;2023-03-22T01:24:01;98743.16;;;4.44;100.00
36600;BME280;35385;55.668;37.508;2023-03-22T01:25:01;98772.63;;;4.51;100.00
36600;BME280;35385;55.668;37.508;2023-03-22T01:26:04;98764.84;;;4.37;100.00
36600;BME280;35385;55.668;37.508;2023-03-22T01:27:04;98766.63;;;4.49;100.00
36600;BME280;35385;55.668;37.508;2023-03-22T01:28:05;98773.91;;;4.58;100.00
36600;BME280;35385;55.668;37.508;2023-03-22T01:29:07;98773.34;;;4.66;100.00
36600;BME280;35385;55.668;37.508;2023-03-22T01:30:08;98753.38;;;4.49;100.00
36600;BME280;35385;55.668;37.508;2023-03-22T01:31:09;98785.34;;;4.58;100.00
36600;BME280;35385;55.668;37.508;2023-03-22T01:32:10;98747.22;;;4.24;100.00
36600;BME280;35385;55.668;37.508;2023-03-22T01:33:10;98772.06;;;4.22;100.00
36600;BME280;35385;55.668;37.508;2023-03-22T01:34:11;98784.72;;;4.42;100.00
36600;BME280;35385;55.668;37.508;2023-03-22T01:35:11;98765.06;;;4.46;100.00
36600;BME280;35385;55.668;37.508;2023-03-22T01:36:12;98778.13;;;4.60;100.00
36600;BME280;35385;55.668;37.508;2023-03-22T01:37:12;98778.00;;;4.62;100.00
36600;BME280;35385;55.668;37.508;2023-03-22T01:38:13;98792.91;;;4.63;100.00
36600;BME280;35385;55.668;37.508;2023-03-22T01:39:13;98789.50;;;4.74;100.00
36600;BME280;35385;55.668;37.508;2023-03-22T01:40:14;98796.25;;;4.78;100.00
36600;BME280;35385;55.668;37.508;2023-03-22T01:41:15;98796.50;;;4.75;100.00
36600;BME280;35385;55.668;37.508;2023-03-22T01:42:16;98799.16;;;4.75;100.00
36600;BME280;35385;55.668;37.508;2023-03-22T01:43:17;98741.97;;;4.48;100.00
36600;BME280;35385;55.668;37.508;2023-03-22T01:44:20;98797.84;;;4.80;100.00
36600;BME280;35385;55.668;37.508;2023-03-22T01:45:49;98807.03;;;4.87;100.00
36600;BME280;35385;55.668;37.508;2023-03-22T01:46:50;98801.31;;;4.57;100.00
36600;BME280;35385;55.668;37.508;2023-03-22T01:47:54;98805.34;;;4.37;100.00
36600;BME280;35385;55.668;37.508;2023-03-22T01:48:56;98806.28;;;4.49;100.00
36600;BME280;35385;55.668;37.508;2023-03-22T01:49:59;98797.81;;;4.56;100.00
36600;BME280;35385;55.668;37.508;2023-03-22T01:51:04;98804.16;;;4.54;100.00
36600;BME280;35385;55.668;37.508;2023-03-22T01:52:10;98798.56;;;4.58;100.00
36600;BME280;35385;55.668;37.508;2023-03-22T01:53:14;98802.44;;;4.66;100.00
36600;BME280;35385;55.668;37.508;2023-03-22T01:54:45;98804.13;;;4.67;100.00
36600;BME280;35385;55.668;37.508;2023-03-22T01:55:47;98800.53;;;4.68;100.00
36600;BME280;35385;55.668;37.508;2023-03-22T01:56:48;98750.25;;;4.44;100.00
36600;BME280;35385;55.668;37.508;2023-03-22T01:57:49;98809.91;;;4.84;100.00
36600;BME280;35385;55.668;37.508;2023-03-22T01:58:51;98785.41;;;4.70;100.00
36600;BME280;35385;55.668;37.508;2023-03-22T01:59:53;98794.34;;;4.80;100.00
36600;BME280;35385;55.668;37.508;2023-03-22T02:00:53;98794.13;;;4.83;100.00
36600;BME280;35385;55.668;37.508;2023-03-22T02:01:54;98759.09;;;4.55;100.00
36600;BME280;35385;55.668;37.508;2023-03-22T02:02:59;98803.75;;;4.60;100.00
36600;BME280;35385;55.668;37.508;2023-03-22T02:04:09;98812.47;;;4.73;100.00
36600;BME280;35385;55.668;37.508;2023-03-22T02:05:11;98773.19;;;4.43;100.00
36600;BME280;35385;55.668;37.508;2023-03-22T02:06:12;98796.13;;;4.55;100.00
36600;BME280;35385;55.668;37.508;2023-03-22T02:07:14;98804.97;;;4.67;100.00
36600;BME280;35385;55.668;37.508;2023-03-22T02:08:15;98790.78;;;4.68;100.00
36600;BME280;35385;55.668;37.508;2023-03-22T02:09:16;98806.56;;;4.70;100.00
36600;BME280;35385;55.668;37.508;2023-03-22T02:10:25;98773.28;;;4.54;100.00
36600;BME280;35385;55.668;37.508;2023-03-22T02:11:38;98817.41;;;4.78;100.00
36600;BME280;35385;55.668;37.508;2023-03-22T02:15:34;98811.69;;;4.84;100.00
36600;BME280;35385;55.668;37.508;2023-03-22T02:20:58;98823.66;;;4.89;100.00
36600;BME280;35385;55.668;37.508;2023-03-22T02:26:48;98821.84;;;4.90;100.00
36600;BME280;35385;55.668;37.508;2023-03-22T02:29:16;98825.63;;;4.98;100.00
36600;BME280;35385;55.668;37.508;2023-03-22T02:35:44;98808.63;;;4.77;100.00
36600;BME280;35385;55.668;37.508;2023-03-22T02:38:45;98819.84;;;4.81;100.00
36600;BME280;35385;55.668;37.508;2023-03-22T02:41:10;98835.56;;;4.95;100.00
36600;BME280;35385;55.668;37.508;2023-03-22T02:42:35;98837.06;;;4.99;100.00
36600;BME280;35385;55.668;37.508;2023-03-22T02:46:26;98854.44;;;4.90;100.00
36600;BME280;35385;55.668;37.508;2023-03-22T02:49:01;98854.03;;;4.84;100.00
36600;BME280;35385;55.668;37.508;2023-03-22T02:51:28;98839.81;;;4.61;100.00
36600;BME280;35385;55.668;37.508;2023-03-22T02:52:37;98850.59;;;4.58;100.00
36600;BME280;35385;55.668;37.508;2023-03-22T02:53:53;98840.13;;;4.56;100.00
36600;BME280;35385;55.668;37.508;2023-03-22T02:55:06;98847.13;;;4.57;100.00
36600;BME280;35385;55.668;37.508;2023-03-22T02:56:15;98816.97;;;4.47;100.00
36600;BME280;35385;55.668;37.508;2023-03-22T02:57:41;98817.94;;;4.46;100.00
36600;BME280;35385;55.668;37.508;2023-03-22T02:58:45;98851.56;;;4.57;100.00
36600;BME280;35385;55.668;37.508;2023-03-22T02:59:49;98858.44;;;4.59;100.00
36600;BME280;35385;55.668;37.508;2023-03-22T03:00:55;98803.59;;;4.25;100.00
36600;BME280;35385;55.668;37.508;2023-03-22T03:01:59;98861.69;;;4.63;100.00
36600;BME280;35385;55.668;37.508;2023-03-22T03:03:06;98856.31;;;4.52;100.00
36600;BME280;35385;55.668;37.508;2023-03-22T03:04:15;98860.13;;;4.60;100.00
36600;BME280;35385;55.668;37.508;2023-03-22T03:05:18;98861.69;;;4.63;100.00
36600;BME280;35385;55.668;37.508;2023-03-22T03:06:21;98861.94;;;4.60;100.00
36600;BME280;35385;55.668;37.508;2023-03-22T03:07:26;98841.59;;;4.48;100.00
36600;BME280;35385;55.668;37.508;2023-03-22T03:08:29;98873.56;;;4.57;100.00
36600;BME280;35385;55.668;37.508;2023-03-22T03:09:31;98844.81;;;4.40;100.00
36600;BME280;35385;55.668;37.508;2023-03-22T03:10:32;98871.88;;;4.56;100.00
36600;BME280;35385;55.668;37.508;2023-03-22T03:11:33;98862.97;;;4.57;100.00
36600;BME280;35385;55.668;37.508;2023-03-22T03:12:34;98866.13;;;4.62;100.00
36600;BME280;35385;55.668;37.508;2023-03-22T03:13:35;98868.78;;;4.62;100.00
36600;BME280;35385;55.668;37.508;2023-03-22T03:14:35;98866.38;;;4.59;100.00
36600;BME280;35385;55.668;37.508;2023-03-22T03:15:38;98873.84;;;4.66;100.00
36600;BME280;35385;55.668;37.508;2023-03-22T03:16:41;98854.72;;;4.49;100.00
36600;BME280;35385;55.668;37.508;2023-03-22T03:19:23;98877.97;;;4.70;100.00
36600;BME280;35385;55.668;37.508;2023-03-22T03:25:36;98836.22;;;4.49;100.00
36600;BME280;35385;55.668;37.508;2023-03-22T03:27:48;98882.00;;;4.62;100.00
36600;BME280;35385;55.668;37.508;2023-03-22T03:29:27;98886.75;;;4.70;100.00
36600;BME280;35385;55.668;37.508;2023-03-22T03:30:38;98837.63;;;4.42;100.00
36600;BME280;35385;55.668;37.508;2023-03-22T03:32:36;98880.56;;;4.58;100.00
36600;BME280;35385;55.668;37.508;2023-03-22T03:33:15;98894.81;;;4.69;100.00
36600;BME280;35385;55.668;37.508;2023-03-22T03:34:58;98888.84;;;4.78;100.00
36600;BME280;35385;55.668;37.508;2023-03-22T03:35:57;98882.44;;;4.69;100.00
36600;BME280;35385;55.668;37.508;2023-03-22T03:37:09;98890.03;;;4.74;100.00
36600;BME280;35385;55.668;37.508;2023-03-22T03:38:15;98891.50;;;4.78;100.00
36600;BME280;35385;55.668;37.508;2023-03-22T03:39:19;98895.09;;;4.77;100.00
36600;BME280;35385;55.668;37.508;2023-03-22T03:40:31;98904.41;;;4.82;100.00
36600;BME280;35385;55.668;37.508;2023-03-22T03:41:33;98861.81;;;4.61;100.00
36600;BME280;35385;55.668;37.508;2023-03-22T03:42:36;98895.19;;;4.88;100.00
36600;BME280;35385;55.668;37.508;2023-03-22T03:43:38;98835.47;;;4.47;100.00
36600;BME280;35385;55.668;37.508;2023-03-22T03:44:39;98903.25;;;4.86;100.00
36600;BME280;35385;55.668;37.508;2023-03-22T03:45:40;98898.06;;;4.85;100.00
36600;BME280;35385;55.668;37.508;2023-03-22T03:46:43;98904.53;;;4.81;100.00
36600;BME280;35385;55.668;37.508;2023-03-22T03:47:47;98895.03;;;4.66;100.00
36600;BME280;35385;55.668;37.508;2023-03-22T03:48:56;98904.53;;;4.81;100.00
36600;BME280;35385;55.668;37.508;2023-03-22T03:49:57;98912.03;;;4.87;100.00
36600;BME280;35385;55.668;37.508;2023-03-22T03:50:59;98910.75;;;4.80;100.00
36600;BME280;35385;55.668;37.508;2023-03-22T03:52:02;98909.19;;;4.77;100.00
36600;BME280;35385;55.668;37.508;2023-03-22T03:53:04;98871.44;;;4.50;100.00
36600;BME280;35385;55.668;37.508;2023-03-22T03:54:05;98914.81;;;4.73;100.00
36600;BME280;35385;55.668;37.508;2023-03-22T03:55:05;98856.88;;;4.44;100.00
36600;BME280;35385;55.668;37.508;2023-03-22T03:56:08;98912.25;;;4.84;100.00
36600;BME280;35385;55.668;37.508;2023-03-22T03:57:08;98916.97;;;4.91;100.00
36600;BME280;35385;55.668;37.508;2023-03-22T03:58:09;98911.28;;;4.85;100.00
36600;BME280;35385;55.668;37.508;2023-03-22T03:59:10;98911.81;;;4.90;100.00
36600;BME280;35385;55.668;37.508;2023-03-22T04:00:11;98918.34;;;4.97;100.00
36600;BME280;35385;55.668;37.508;2023-03-22T04:01:16;98920.47;;;5.05;100.00
36600;BME280;35385;55.668;37.508;2023-03-22T04:02:18;98918.53;;;5.07;100.00
36600;BME280;35385;55.668;37.508;2023-03-22T04:03:19;98919.38;;;5.07;100.00
36600;BME280;35385;55.668;37.508;2023-03-22T04:04:22;98920.22;;;5.08;100.00
36600;BME280;35385;55.668;37.508;2023-03-22T04:05:26;98927.31;;;5.07;100.00
36600;BME280;35385;55.668;37.508;2023-03-22T04:06:26;98860.09;;;4.73;100.00
36600;BME280;35385;55.668;37.508;2023-03-22T04:07:27;98909.25;;;5.01;100.00
36600;BME280;35385;55.668;37.508;2023-03-22T04:08:27;98919.69;;;5.15;100.00
36600;BME280;35385;55.668;37.508;2023-03-22T04:09:32;98925.09;;;5.14;100.00
36600;BME280;35385;55.668;37.508;2023-03-22T04:10:33;98918.47;;;4.95;100.00
36600;BME280;35385;55.668;37.508;2023-03-22T04:11:34;98871.94;;;4.68;100.00
36600;BME280;35385;55.668;37.508;2023-03-22T04:12:35;98912.03;;;4.87;100.00
36600;BME280;35385;55.668;37.508;2023-03-22T04:13:35;98875.75;;;4.63;100.00
36600;BME280;35385;55.668;37.508;2023-03-22T04:14:36;98923.66;;;4.97;100.00
36600;BME280;35385;55.668;37.508;2023-03-22T04:15:36;98925.25;;;5.00;100.00
36600;BME280;35385;55.668;37.508;2023-03-22T04:16:37;98928.41;;;5.05;100.00
36600;BME280;35385;55.668;37.508;2023-03-22T04:17:38;98937.00;;;4.95;100.00
36600;BME280;35385;55.668;37.508;2023-03-22T04:18:38;98932.34;;;4.99;100.00
36600;BME280;35385;55.668;37.508;2023-03-22T04:19:39;98880.72;;;4.68;100.00
36600;BME280;35385;55.668;37.508;2023-03-22T04:20:44;98927.78;;;5.01;100.00
36600;BME280;35385;55.668;37.508;2023-03-22T04:21:45;98932.97;;;5.03;100.00
36600;BME280;35385;55.668;37.508;2023-03-22T04:22:46;98938.44;;;5.12;100.00
36600;BME280;35385;55.668;37.508;2023-03-22T04:23:48;98938.66;;;5.09;100.00
36600;BME280;35385;55.668;37.508;2023-03-22T04:24:48;98927.03;;;4.99;100.00
36600;BME280;35385;55.668;37.508;2023-03-22T04:25:49;98945.34;;;5.02;100.00
36600;BME280;35385;55.668;37.508;2023-03-22T04:26:49;98882.31;;;4.71;100.00
36600;BME280;35385;55.668;37.508;2023-03-22T04:27:51;98936.03;;;4.96;100.00
36600;BME280;35385;55.668;37.508;2023-03-22T04:28:55;98920.94;;;4.86;100.00
36600;BME280;35385;55.668;37.508;2023-03-22T04:29:57;98937.84;;;4.96;100.00
36600;BME280;35385;55.668;37.508;2023-03-22T04:31:00;98936.66;;;5.00;100.00
36600;BME280;35385;55.668;37.508;2023-03-22T04:32:03;98955.41;;;4.97;100.00
36600;BME280;35385;55.668;37.508;2023-03-22T04:33:04;98947.78;;;4.92;100.00
36600;BME280;35385;55.668;37.508;2023-03-22T04:34:06;98948.53;;;4.94;100.00
36600;BME280;35385;55.668;37.508;2023-03-22T04:35:06;98899.16;;;4.70;100.00
36600;BME280;35385;55.668;37.508;2023-03-22T04:36:07;98944.50;;;5.02;100.00
36600;BME280;35385;55.668;37.508;2023-03-22T04:37:15;98944.63;;;5.00;100.00
36600;BME280;35385;55.668;37.508;2023-03-22T04:38:16;98955.41;;;4.97;100.00
36600;BME280;35385;55.668;37.508;2023-03-22T04:39:17;98956.25;;;4.97;100.00
36600;BME280;35385;55.668;37.508;2023-03-22T04:40:18;98941.47;;;4.82;100.00
36600;BME280;35385;55.668;37.508;2023-03-22T04:41:20;98960.09;;;4.81;100.00
36600;BME280;35385;55.668;37.508;2023-03-22T04:42:20;98954.78;;;4.81;100.00
36600;BME280;35385;55.668;37.508;2023-03-22T04:43:21;98953.31;;;4.77;100.00
36600;BME280;35385;55.668;37.508;2023-03-22T04:44:22;98951.41;;;4.66;100.00
36600;BME280;35385;55.668;37.508;2023-03-22T04:45:22;98970.56;;;4.70;100.00
36600;BME280;35385;55.668;37.508;2023-03-22T04:46:23;98955.66;;;4.69;100.00
36600;BME280;35385;55.668;37.508;2023-03-22T04:47:23;98959.59;;;4.76;100.00
36600;BME280;35385;55.668;37.508;2023-03-22T04:48:24;98972.16;;;4.85;100.00
36600;BME280;35385;55.668;37.508;2023-03-22T04:49:27;98961.25;;;4.89;100.00
36600;BME280;35385;55.668;37.508;2023-03-22T04:50:27;98969.59;;;4.96;100.00
36600;BME280;35385;55.668;37.508;2023-03-22T04:51:28;98965.16;;;4.96;100.00
36600;BME280;35385;55.668;37.508;2023-03-22T04:52:29;98979.66;;;4.91;100.00
36600;BME280;35385;55.668;37.508;2023-03-22T04:53:30;98926.75;;;4.66;100.00
36600;BME280;35385;55.668;37.508;2023-03-22T04:54:30;98981.03;;;4.84;100.00
36600;BME280;35385;55.668;37.508;2023-03-22T04:55:31;98980.84;;;4.87;100.00
36600;BME280;35385;55.668;37.508;2023-03-22T04:56:33;98984.22;;;4.76;100.00
36600;BME280;35385;55.668;37.508;2023-03-22T04:57:33;98982.41;;;4.77;100.00
36600;BME280;35385;55.668;37.508;2023-03-22T04:58:36;98982.84;;;4.83;100.00
36600;BME280;35385;55.668;37.508;2023-03-22T04:59:41;98947.50;;;4.72;100.00
36600;BME280;35385;55.668;37.508;2023-03-22T05:00:43;98975.31;;;5.03;100.00
36600;BME280;35385;55.668;37.508;2023-03-22T05:01:49;98977.22;;;5.01;100.00
36600;BME280;35385;55.668;37.508;2023-03-22T05:02:50;98978.88;;;5.14;100.00
36600;BME280;35385;55.668;37.508;2023-03-22T05:03:51;98985.66;;;5.18;100.00
36600;BME280;35385;55.668;37.508;2023-03-22T05:04:51;98969.22;;;5.26;100.00
36600;BME280;35385;55.668;37.508;2023-03-22T05:05:54;98975.38;;;5.26;100.00
36600;BME280;35385;55.668;37.508;2023-03-22T05:06:55;98978.75;;;5.28;100.00
36600;BME280;35385;55.668;37.508;2023-03-22T05:07:56;98970.38;;;5.22;100.00
36600;BME280;35385;55.668;37.508;2023-03-22T05:08:57;98911.50;;;4.82;100.00
36600;BME280;35385;55.668;37.508;2023-03-22T05:09:57;98975.94;;;5.19;100.00
36600;BME280;35385;55.668;37.508;2023-03-22T05:11:04;98930.63;;;4.98;100.00
36600;BME280;35385;55.668;37.508;2023-03-22T05:12:04;98987.53;;;5.29;100.00
36600;BME280;35385;55.668;37.508;2023-03-22T05:13:05;98979.06;;;5.24;100.00
36600;BME280;35385;55.668;37.508;2023-03-22T05:14:07;98967.84;;;5.20;100.00
36600;BME280;35385;55.668;37.508;2023-03-22T05:15:08;98986.06;;;5.25;100.00
36600;BME280;35385;55.668;37.508;2023-03-22T05:16:09;98983.41;;;5.25;100.00
36600;BME280;35385;55.668;37.508;2023-03-22T05:17:10;98994.75;;;5.27;100.00
36600;BME280;35385;55.668;37.508;2023-03-22T05:18:10;98904.22;;;4.73;100.00
36600;BME280;35385;55.668;37.508;2023-03-22T05:19:13;98937.09;;;4.94;100.00
36600;BME280;35385;55.668;37.508;2023-03-22T05:20:14;98993.38;;;5.21;100.00
36600;BME280;35385;55.668;37.508;2023-03-22T05:21:17;98980.97;;;5.22;100.00
36600;BME280;35385;55.668;37.508;2023-03-22T05:22:21;98979.53;;;5.18;100.00
36600;BME280;35385;55.668;37.508;2023-03-22T05:23:22;98996.84;;;5.34;100.00
36600;BME280;35385;55.668;37.508;2023-03-22T05:24:23;98981.41;;;5.28;100.00
36600;BME280;35385;55.668;37.508;2023-03-22T05:25:23;99006.03;;;5.42;100.00
36600;BME280;35385;55.668;37.508;2023-03-22T05:26:24;98993.22;;;5.36;100.00
36600;BME280;35385;55.668;37.508;2023-03-22T05:27:26;99002.44;;;5.43;100.00
36600;BME280;35385;55.668;37.508;2023-03-22T05:28:30;99002.97;;;5.48;100.00
36600;BME280;35385;55.668;37.508;2023-03-22T05:29:31;98995.34;;;5.43;100.00
36600;BME280;35385;55.668;37.508;2023-03-22T05:30:35;98955.28;;;5.11;100.00
36600;BME280;35385;55.668;37.508;2023-03-22T05:31:36;99003.75;;;5.24;100.00
36600;BME280;35385;55.668;37.508;2023-03-22T05:32:37;99003.44;;;5.29;100.00
36600;BME280;35385;55.668;37.508;2023-03-22T05:33:42;99010.91;;;5.35;100.00
36600;BME280;35385;55.668;37.508;2023-03-22T05:34:45;98997.69;;;5.35;100.00
36600;BME280;35385;55.668;37.508;2023-03-22T05:35:47;99010.81;;;5.37;100.00
36600;BME280;35385;55.668;37.508;2023-03-22T05:36:49;99008.31;;;5.22;100.00
36600;BME280;35385;55.668;37.508;2023-03-22T05:37:51;99009.91;;;5.25;100.00
36600;BME280;35385;55.668;37.508;2023-03-22T05:38:52;99014.78;;;5.18;100.00
36600;BME280;35385;55.668;37.508;2023-03-22T05:39:52;99020.78;;;5.20;100.00
36600;BME280;35385;55.668;37.508;2023-03-22T05:40:53;99013.09;;;5.17;100.00
36600;BME280;35385;55.668;37.508;2023-03-22T05:41:53;99021.66;;;5.21;100.00
36600;BME280;35385;55.668;37.508;2023-03-22T05:42:54;99032.59;;;5.16;100.00
36600;BME280;35385;55.668;37.508;2023-03-22T05:43:55;99029.47;;;5.22;100.00
36600;BME280;35385;55.668;37.508;2023-03-22T05:44:55;99031.19;;;5.23;100.00
36600;BME280;35385;55.668;37.508;2023-03-22T05:45:56;99035.84;;;5.20;100.00
36600;BME280;35385;55.668;37.508;2023-03-22T05:46:57;99034.28;;;5.17;100.00
36600;BME280;35385;55.668;37.508;2023-03-22T05:47:57;99032.59;;;5.16;100.00
36600;BME280;35385;55.668;37.508;2023-03-22T05:48:58;99033.75;;;5.12;100.00
36600;BME280;35385;55.668;37.508;2023-03-22T05:49:58;99028.25;;;5.15;100.00
36600;BME280;35385;55.668;37.508;2023-03-22T05:50:59;99029.94;;;5.04;100.00
36600;BME280;35385;55.668;37.508;2023-03-22T05:51:59;99032.47;;;5.05;100.00
36600;BME280;35385;55.668;37.508;2023-03-22T05:53:03;99029.09;;;5.03;100.00
36600;BME280;35385;55.668;37.508;2023-03-22T05:54:04;99046.03;;;5.13;100.00
36600;BME280;35385;55.668;37.508;2023-03-22T05:55:07;99037.22;;;5.25;100.00
36600;BME280;35385;55.668;37.508;2023-03-22T05:56:08;99038.91;;;5.26;100.00
36600;BME280;35385;55.668;37.508;2023-03-22T05:57:09;99051.72;;;5.32;100.00
36600;BME280;35385;55.668;37.508;2023-03-22T05:58:09;98995.19;;;5.08;100.00
36600;BME280;35385;55.668;37.508;2023-03-22T05:59:10;99032.88;;;5.24;100.00
36600;BME280;35385;55.668;37.508;2023-03-22T06:00:13;99008.53;;;5.19;100.00
36600;BME280;35385;55.668;37.508;2023-03-22T06:01:15;99047.38;;;5.44;100.00
36600;BME280;35385;55.668;37.508;2023-03-22T06:02:15;99044.50;;;5.47;100.00
36600;BME280;35385;55.668;37.508;2023-03-22T06:03:16;99033.41;;;5.29;100.00
36600;BME280;35385;55.668;37.508;2023-03-22T06:04:17;99056.78;;;5.36;100.00
36600;BME280;35385;55.668;37.508;2023-03-22T06:05:18;99051.84;;;5.18;100.00
36600;BME280;35385;55.668;37.508;2023-03-22T06:06:20;99058.53;;;4.86;100.00